Jump to content
Sign in to follow this  
Rifleman

Катастрофа Боинга в Казани

Recommended Posts

Очень интересно, только как, сидя в самолете, он мог знать о ситуации с ветром за бортом? Ветер на земле чаще всего отличается от ветра на высоте.

 

причем крайние пару дней, ветер у земли и на кругу меняется чуть ли не на 180 градусов. Пару раз ловил умеренный сдвиг по направлению. Блин, я конечно не любитель гадать на кофейной гуще, но может...сдвиг?

Share this post


Link to post
Share on other sites

Там пассажир предыдущего рейса на этом самолете (Казань-Мск) говорила, что при посадке была сильная тряска, которая их напугала. Погода была тогда хорошая...может неисправности были уже тогда

У нас в МСК тоже сильный порывистый ветер весь день.

Share this post


Link to post
Share on other sites

Она про тряску говорила, а не про ветер

 

Ну да, только вот не уточнила, тряска была когда самолет был еще в воздухе, или уже после касания самолетом ВПП, на пробеге.

Share this post


Link to post
Share on other sites

Она про тряску говорила, а не про ветер

Ветер, как одна из причин тряски. Говорить можно многое и не знать многого. 

Share this post


Link to post
Share on other sites

причем крайние пару дней, ветер у земли и на кругу меняется чуть ли не на 180 градусов. Пару раз ловил умеренный сдвиг по направлению. Блин, я конечно не любитель гадать на кофейной гуще, но может...сдвиг?

Учитывая скорость ветра, это не исключено. Но это всё догадки…

Share this post


Link to post
Share on other sites

Учитывая скорость ветра, это не исключено. Но это всё догадки…

безусловно. Но что то мне подсказывает что это один из факторов.

Share this post


Link to post
Share on other sites

Количество пользователей, читающих эту тему: 841

121 пользователей, 714 гостей, 6 анонимных :facepalm:

 

Господа, следите за тем, что пишите. Вся журналажная братия страны тут собралась

Edited by aswsx

Share this post


Link to post
Share on other sites

 

МОСКВА, 17 ноя — РИА Новости. Самолет Boeing 737, разбившийся в Казани, при падении распался на несколько частей, сообщил РИА Новости представитель пресс-службы управления на транспорте МВД России по Приволжскому федеральному округу.

 
 
© РИА Новости
Он лежит на взлетно-посадочной полосе - очевидец об упавшем самолете в Казани
"Этот рейс должен был приземлиться в аэропорту Казани в 19.40, а, по уточненным данным, самолет упал в 19.26. то есть высота была приличная", — сказал собеседник агентства.
 
По его словам, после падения самолет загорелся, сейчас тушение продолжается.
 
Представитель пресс-службы сообщил, что, по предварительным данным, лайнер, принадлежащий авиакомпании "Татарстан" потерял высоту при заходе на посадку и упал в районе взлетно-посадочной полосы.
 
На борту, по предварительным данным, находилось 44 пассажира и 6 членов экипажа, отметил собеседник агентства. "Если судить по характеру обломков, вряд ли кто-то выжил", — отметил он.
 
В управлении отметили, что место происшествия оцеплено сотрудниками полиции, туда не допускаются посторонние.
 

http://ria.ru/incidents/20131117/977497791.html

Share this post


Link to post
Share on other sites

По Вестям говорят "Столкнулся с летным полем аэродрома"

Share this post


Link to post
Share on other sites

Количество пользователей, читающих эту тему: 841

 

121 пользователей, 714 гостей, 6 анонимных :facepalm:

И? Edited by nik-dem

Share this post


Link to post
Share on other sites

причем крайние пару дней, ветер у земли и на кругу меняется чуть ли не на 180 градусов. Пару раз ловил умеренный сдвиг по направлению. Блин, я конечно не любитель гадать на кофейной гуще, но может...сдвиг?

Аналогично, но наблюдал такую ситуацию: примерно на момент катастрофы на высоте 9го этажа ветер порой был с такими порывами, что окно заливало почти полностью....

Относительно Казани живу близко к АП. Я бы не назвал погоду такой нелетной, но сдвиг имеет место быть. К сожалению :(

 

Только такое чувство, что спишут все на экипаж, с них уже ничего не возьмешь, а от скольки проблем, в таком случае, можно избавиться!  :down1:

Share this post


Link to post
Share on other sites

 

 

Казань Напр. Ветер Видим. Явл. Облачн. НГО t° Отн.вл. Давл. Доп.инф. 

19:30 ЮЗ 8(11) 5000 м слаб.дождьснег сплош. 210 +3° 100% 993 без изм.2ч 

19:00 ЮЗ 9(12) >10 км слаб.дождьснег сплош. 240 +3° 93% 994 без изм.2ч 

 

ветер боковой, до 12 м/с

Взято с радиосканнера

Share this post


Link to post
Share on other sites

На авхерольде один написал странную вещь: http://avherald.com/h?article=46b9ecbc&opt=0

 

By Chris Pawley on Sunday, Nov 17th 2013 16:55Z

RIP to all the victims... my boyfriend's cousin was on that flight however he is all OK

Share this post


Link to post
Share on other sites

Ну вы даете,еще обломки не остыли,вам уже переговоры подавай! :shok:

 А вы чего предлагаете подождать? 

Share this post


Link to post
Share on other sites
12 м/с для боба семечки. Даже караван при 15 м/с нормально садится. Я склонен думать что сдвиг. Может кто нибудь атис выложить? Мне с айпадки сильно не сподручно.

Share this post


Link to post
Share on other sites

Светлая память экипажу и пассажирам. Уж давно пора менять эти старые 735!!!! 23,5 года самолету VQ-BBN который разбился (самолет может и летать 60 лет, но все развитые компании продают самолеты после 5-6 лет эксплуатации)! Вот цена экономии.. Будем ждать отчета Росавиации. Но как правило в России самая популярная версия: ошибка экипажа, "правильно" с тех кто умер, уже не спросить....

 

А можно список АК, которые продают самолёты после 5 лет эксплуатации?

Share this post


Link to post
Share on other sites

При чем тут возраст самолета?! Вообще не аргумент.

Share this post


Link to post
Share on other sites

12 м/с для боба семечки. Даже караван при 15 м/с нормально садится. Я склонен думать что сдвиг. Может кто нибудь атис выложить? Мне с айпадки сильно не сподручно.

 

Не очень плохая погода:

METAR UWKD 171500Z 23009G12MPS 9999 -RASN OVC008 03/02 Q0994 R29/2/0055 NOSIG RMK QFE735/0980=

METAR UWKD 171530Z 23008G11MPS 5000 -RASN OVC007 03/03 Q0993 R29/2/0055 NOSIG RMK QFE734/0979=

METAR UWKD 171600Z 24008G12MPS 5000 -RASN OVC008 03/03 Q0993 R29/2/0055 NOSIG RMK QFE734/0978=

Share this post


Link to post
Share on other sites
А можно список АК, которые продают самолёты после 5 лет эксплуатации?

 

Пожалуйста, не кормите тролля, он вам толком ничего не ответит, а срач может разгореться. Срачам здесь не место.

Просто лучше молча ставить минус. Умные поймут что не правы и пойдут изучать тему беседы, а не-умные таким образом сами отсеются.

Share this post


Link to post
Share on other sites

я не хочу в это верить. В кокпите были Салихов и Гуцуп. Слов нет.....земля пухом им всем(((((

Да, Дима, жесть... "Офигенная" новость перед сном. :(

Share this post


Link to post
Share on other sites

На авхерольде один написал странную вещь: http://avherald.com/h?article=46b9ecbc&opt=0

 

By Chris Pawley on Sunday, Nov 17th 2013 16:55Z

 

RIP to all the victims... my boyfriend's cousin was on that flight however he is all OK

Metars:

UWKD 171600Z 24008G12MPS 5000 -RASN OVC008 03/03 Q0993 R29/2/0055 NOSIG RMK QFE734/0978 

UWKD 171530Z 23008G11MPS 5000 -RASN OVC007 03/03 Q0993 R29/2/0055 NOSIG RMK QFE734/0979 

UWKD 171500Z 23009G12MPS 9999 -RASN OVC008 03/02 Q0994 R29/2/0055 NOSIG RMK QFE735/0980 

UWKD 171430Z 23009G12MPS 9999 OVC009 03/02 Q0995 R29/2/0055 NOSIG RMK QFE735/0980 

UWKD 171400Z 23007G10MPS 9999 OVC011 03/02 Q0996 R29/2/0055 NOSIG RMK QFE736/0981 

UWKD 171330Z 24006G09MPS 9999 OVC012 03/02 Q0996 R29/2/0055 NOSIG RMK QFE736/0982 

UWKD 171300Z 24008G11MPS 9999 OVC011 03/02 Q0997 R29/2/0055 NOSIG RMK QFE736/0982 

UWKD 171230Z 23005G08MPS 9999 OVC012 03/02 Q0997 R29/2/0055 NOSIG RMK QFE737/0983 

UWKD 171200Z 23007G10MPS 9999 OVC011 03/02 Q0997 R29/2/0050 NOSIG RMK QFE737/0983 

 

ЧТО?ЧТО?КОГО?

Это где такая фантастика :shok: 

Share this post


Link to post
Share on other sites

Ребята, метар в данном случае мало что расскажет. Атис выложите кто нибудь-интересно узнать ветер на кругу и на ста метрах.

Share this post


Link to post
Share on other sites

Join the conversation

You can post now and register later. If you have an account, sign in now to post with your account.
Note: Your post will require moderator approval before it will be visible.

Guest
Reply to this topic...

×   Pasted as rich text.   Paste as plain text instead

  Only 75 emoji are allowed.

×   Your link has been automatically embedded.   Display as a link instead

×   Your previous content has been restored.   Clear editor

×   You cannot paste images directly. Upload or insert images from URL.

Loading...
Sign in to follow this  

  • Recently Browsing   0 members

    No registered users viewing this page.

×
×
  • Create New...